createdAt,value
2019-06-26T00:00:50.095Z,87.80
2019-06-26T00:05:54.930Z,87.60
2019-06-26T00:10:59.783Z,88.50
2019-06-26T00:16:04.721Z,89.40
2019-06-26T00:21:09.572Z,89.90
2019-06-26T00:26:14.409Z,90.30
2019-06-26T00:31:19.258Z,90.20
2019-06-26T00:36:24.122Z,90.30
2019-06-26T00:41:28.972Z,90.50
2019-06-26T00:46:33.912Z,90.70
2019-06-26T00:51:38.749Z,91.00
2019-06-26T00:56:45.052Z,91.20
2019-06-26T01:01:50.041Z,91.30
2019-06-26T01:06:55.042Z,91.60
2019-06-26T01:12:01.371Z,91.80
2019-06-26T01:17:07.688Z,91.90
2019-06-26T01:22:14.012Z,92.00
2019-06-26T01:27:21.129Z,92.60
2019-06-26T01:32:27.379Z,92.60
2019-06-26T01:37:33.719Z,92.70
2019-06-26T01:42:40.028Z,92.70
2019-06-26T01:47:45.495Z,92.80
2019-06-26T01:52:51.017Z,92.90
2019-06-26T01:57:56.372Z,92.80
2019-06-26T02:03:02.992Z,93.20
2019-06-26T02:08:07.843Z,93.40
2019-06-26T02:13:12.747Z,93.40
2019-06-26T02:18:37.473Z,93.80
2019-06-26T02:23:42.404Z,94.20
2019-06-26T02:28:47.273Z,94.20
2019-06-26T02:33:52.043Z,94.20
2019-06-26T02:38:56.823Z,94.20
2019-06-26T02:44:02.369Z,94.30
2019-06-26T02:49:07.836Z,94.20
2019-06-26T02:54:12.768Z,94.80
2019-06-26T02:59:18.111Z,94.70
2019-06-26T03:04:23.218Z,94.50
2019-06-26T03:09:28.089Z,94.50
2019-06-26T03:14:33.760Z,94.40
2019-06-26T03:19:38.610Z,95.00
2019-06-26T03:24:43.463Z,95.00
2019-06-26T03:29:48.292Z,94.50
2019-06-26T03:34:53.142Z,94.60
2019-06-26T03:39:57.989Z,94.00
2019-06-26T03:45:03.431Z,94.10
2019-06-26T03:50:08.364Z,94.70
2019-06-26T03:55:13.315Z,94.60
2019-06-26T04:00:24.168Z,94.20
2019-06-26T04:05:29.110Z,94.50
2019-06-26T04:10:35.174Z,94.50
2019-06-26T04:15:42.574Z,94.30
2019-06-26T04:20:47.105Z,94.30
2019-06-26T04:25:52.268Z,94.40
2019-06-26T04:30:57.138Z,94.30
2019-06-26T04:36:01.988Z,94.50
2019-06-26T04:41:06.855Z,94.30
2019-06-26T04:46:11.699Z,94.30
2019-06-26T04:51:16.543Z,94.30
2019-06-26T04:56:21.413Z,93.70
2019-06-26T05:01:26.379Z,93.50
2019-06-26T05:06:31.347Z,93.20
2019-06-26T05:11:36.189Z,93.00
2019-06-26T05:16:41.251Z,92.80
2019-06-26T05:21:46.108Z,92.40
2019-06-26T05:26:50.954Z,92.10
2019-06-26T05:31:55.803Z,91.30
2019-06-26T05:37:00.654Z,91.00
2019-06-26T05:42:06.973Z,90.30
2019-06-26T05:47:11.855Z,90.00
2019-06-26T05:52:16.883Z,89.40
2019-06-26T05:57:21.745Z,87.90
2019-06-26T06:02:26.667Z,86.20
2019-06-26T06:07:32.200Z,84.30
2019-06-26T06:12:37.039Z,83.10
2019-06-26T06:17:41.942Z,82.60
2019-06-26T06:22:46.792Z,80.70
2019-06-26T06:27:51.692Z,78.90
2019-06-26T06:32:56.578Z,77.80
2019-06-26T06:38:01.358Z,76.30
2019-06-26T06:43:06.203Z,76.10
2019-06-26T06:48:10.980Z,75.80
2019-06-26T06:53:15.830Z,76.70
2019-06-26T06:58:20.611Z,75.30
2019-06-26T07:03:25.453Z,73.00
2019-06-26T07:08:30.371Z,71.70
2019-06-26T07:13:35.216Z,70.20
2019-06-26T07:18:40.043Z,69.60
2019-06-26T07:23:44.869Z,68.80
2019-06-26T07:28:49.719Z,65.90
2019-06-26T07:33:55.656Z,63.20
2019-06-26T07:39:01.021Z,62.20
2019-06-26T07:44:05.864Z,60.50
2019-06-26T07:49:10.639Z,58.60
2019-06-26T07:54:15.483Z,58.90
2019-06-26T07:59:20.337Z,58.20
2019-06-26T08:04:25.210Z,56.40
2019-06-26T08:09:30.107Z,56.50
2019-06-26T08:14:34.935Z,56.20
2019-06-26T08:19:39.795Z,55.30
2019-06-26T08:24:44.642Z,53.00
2019-06-26T08:29:49.484Z,50.80
2019-06-26T08:34:54.260Z,48.90
2019-06-26T08:39:59.108Z,49.10
2019-06-26T08:45:04.951Z,49.50
2019-06-26T08:50:10.699Z,49.40
2019-06-26T08:55:15.753Z,45.00
2019-06-26T09:00:21.105Z,42.70
2019-06-26T09:05:25.947Z,43.90
2019-06-26T09:10:30.858Z,44.20
2019-06-26T09:15:35.699Z,43.00
2019-06-26T09:20:41.063Z,44.20
2019-06-26T09:25:45.839Z,43.60
2019-06-26T09:30:50.682Z,41.40
2019-06-26T09:35:55.532Z,40.60
2019-06-26T09:41:00.384Z,41.50
2019-06-26T09:46:05.219Z,40.20
2019-06-26T09:51:10.071Z,39.90
2019-06-26T09:56:14.922Z,40.50
2019-06-26T10:01:19.768Z,41.10
2019-06-26T10:06:24.625Z,38.20
2019-06-26T10:11:29.475Z,39.10
2019-06-26T10:16:34.311Z,39.80
2019-06-26T10:21:39.234Z,37.30
2019-06-26T10:26:44.315Z,39.80
2019-06-26T10:31:49.151Z,36.40
2019-06-26T10:36:54.013Z,38.30
2019-06-26T10:41:58.838Z,38.00
2019-06-26T10:47:03.811Z,37.30
2019-06-26T10:52:08.651Z,36.30
2019-06-26T10:57:13.476Z,37.30
2019-06-26T11:02:18.415Z,35.80
2019-06-26T11:07:23.378Z,35.00
2019-06-26T11:12:28.146Z,34.70
2019-06-26T11:17:32.983Z,33.00
2019-06-26T11:22:37.883Z,34.20
2019-06-26T11:27:42.719Z,31.40
2019-06-26T11:32:47.566Z,33.10
2019-06-26T11:37:52.505Z,34.60
2019-06-26T11:42:57.349Z,33.80
2019-06-26T11:48:02.197Z,34.00
2019-06-26T11:53:07.095Z,33.60
2019-06-26T11:58:12.122Z,30.90
2019-06-26T12:03:16.969Z,34.20
2019-06-26T12:08:21.877Z,35.20
2019-06-26T12:13:26.731Z,34.30
2019-06-26T12:18:31.567Z,35.10
2019-06-26T12:23:36.469Z,35.80
2019-06-26T12:28:41.315Z,34.60
2019-06-26T12:33:46.083Z,36.30
2019-06-26T12:38:51.093Z,36.30
2019-06-26T12:43:56.039Z,36.90
2019-06-26T12:49:01.607Z,35.90
2019-06-26T12:54:06.453Z,36.70
2019-06-26T12:59:11.294Z,35.00
2019-06-26T13:04:16.147Z,37.30
2019-06-26T13:09:20.994Z,36.50
2019-06-26T13:14:25.860Z,38.10
2019-06-26T13:19:30.714Z,38.20
2019-06-26T13:24:35.672Z,38.00
2019-06-26T13:29:40.512Z,37.30
2019-06-26T13:34:45.383Z,37.90
2019-06-26T13:39:50.227Z,39.20
2019-06-26T13:44:55.072Z,39.40
2019-06-26T13:49:59.983Z,37.90
2019-06-26T13:55:06.529Z,39.20
2019-06-26T14:00:13.667Z,40.30
2019-06-26T14:05:19.023Z,39.80
2019-06-26T14:10:24.435Z,40.50
2019-06-26T14:15:29.377Z,38.10
2019-06-26T14:20:34.249Z,40.60
2019-06-26T14:25:39.120Z,38.50
2019-06-26T14:30:44.146Z,39.00
2019-06-26T14:35:49.035Z,38.70
2019-06-26T14:40:53.883Z,39.60
2019-06-26T14:45:58.731Z,38.10
2019-06-26T14:51:03.599Z,39.30
2019-06-26T14:56:08.341Z,40.00
2019-06-26T15:01:13.203Z,39.10
2019-06-26T15:06:18.050Z,39.60
2019-06-26T15:11:23.323Z,40.00
2019-06-26T15:16:30.411Z,40.00
2019-06-26T15:21:34.634Z,38.10
2019-06-26T15:26:39.482Z,37.20
2019-06-26T15:31:44.361Z,35.80
2019-06-26T15:36:49.303Z,35.00
2019-06-26T15:41:54.164Z,36.10
2019-06-26T15:46:59.020Z,36.40
2019-06-26T15:52:14.630Z,36.00
2019-06-26T15:57:10.425Z,34.80
2019-06-26T16:02:15.254Z,34.20
2019-06-26T16:07:20.204Z,35.00
2019-06-26T16:12:25.040Z,34.10
2019-06-26T16:17:34.472Z,34.50
2019-06-26T16:22:39.353Z,33.90
2019-06-26T16:27:44.170Z,33.70
2019-06-26T16:32:49.021Z,34.00
2019-06-26T16:37:53.910Z,33.70
2019-06-26T16:42:59.146Z,35.00
2019-06-26T16:48:04.178Z,35.10
2019-06-26T16:53:09.014Z,35.70
2019-06-26T16:58:13.848Z,35.00
2019-06-26T17:03:20.323Z,36.60
2019-06-26T17:08:25.224Z,38.90
2019-06-26T17:13:30.088Z,39.30
2019-06-26T17:18:34.949Z,40.00
2019-06-26T17:23:39.798Z,40.40
2019-06-26T17:28:44.735Z,40.70
2019-06-26T17:33:49.625Z,41.60
2019-06-26T17:38:54.481Z,41.80
2019-06-26T17:43:59.371Z,42.00
2019-06-26T17:49:04.217Z,42.30
2019-06-26T17:54:11.112Z,42.50
2019-06-26T17:59:15.970Z,43.30
2019-06-26T18:04:22.282Z,43.40
2019-06-26T18:09:28.586Z,43.20
2019-06-26T18:14:33.425Z,43.40
2019-06-26T18:19:38.388Z,44.40
2019-06-26T18:24:43.219Z,44.70
2019-06-26T18:29:48.057Z,45.50
2019-06-26T18:34:52.912Z,46.50
2019-06-26T18:39:57.867Z,47.40
2019-06-26T18:45:02.714Z,48.90
2019-06-26T18:50:10.084Z,49.70
2019-06-26T18:55:14.982Z,50.50
2019-06-26T19:00:20.528Z,51.40
2019-06-26T19:05:29.301Z,50.90
2019-06-26T19:10:34.152Z,52.30
2019-06-26T19:15:39.025Z,54.30
2019-06-26T19:20:43.874Z,54.20
2019-06-26T19:25:48.712Z,53.80
2019-06-26T19:30:53.557Z,57.30
2019-06-26T19:35:58.414Z,60.40
2019-06-26T19:41:07.567Z,63.40
2019-06-26T19:46:11.211Z,62.60
2019-06-26T19:51:16.276Z,64.50
2019-06-26T19:56:21.110Z,62.30
2019-06-26T20:01:28.084Z,65.90
2019-06-26T20:06:32.918Z,70.20
2019-06-26T20:11:37.757Z,70.40
2019-06-26T20:16:42.597Z,66.00
2019-06-26T20:21:47.559Z,64.70
2019-06-26T20:26:52.408Z,64.10
2019-06-26T20:31:57.335Z,64.10
2019-06-26T20:37:02.217Z,65.00
2019-06-26T20:42:07.097Z,65.50
2019-06-26T20:47:11.964Z,65.30
2019-06-26T20:52:16.822Z,66.10
2019-06-26T20:57:21.704Z,66.70
2019-06-26T21:02:26.629Z,67.40
2019-06-26T21:07:31.447Z,67.90
2019-06-26T21:12:36.346Z,68.10
2019-06-26T21:17:41.299Z,69.30
2019-06-26T21:22:46.138Z,70.00
2019-06-26T21:27:50.978Z,71.70
2019-06-26T21:32:55.834Z,73.00
2019-06-26T21:38:00.782Z,74.10
2019-06-26T21:43:08.965Z,74.70
2019-06-26T21:48:13.820Z,75.80
2019-06-26T21:53:18.640Z,77.50
2019-06-26T21:58:23.489Z,79.00
2019-06-26T22:03:28.671Z,80.00
2019-06-26T22:08:33.519Z,81.30
2019-06-26T22:13:38.358Z,82.20
2019-06-26T22:18:43.200Z,83.30
2019-06-26T22:23:48.049Z,84.20
2019-06-26T22:28:52.873Z,85.00
2019-06-26T22:33:57.784Z,85.70
2019-06-26T22:39:04.309Z,86.00
2019-06-26T22:44:09.134Z,86.50
2019-06-26T22:49:13.975Z,86.90
2019-06-26T22:54:19.863Z,87.10
2019-06-26T22:59:25.176Z,87.50
2019-06-26T23:04:30.152Z,87.40
2019-06-26T23:09:34.992Z,87.60
2019-06-26T23:14:39.929Z,88.20
2019-06-26T23:19:45.045Z,88.80
2019-06-26T23:24:49.888Z,88.60
2019-06-26T23:29:54.720Z,89.40
2019-06-26T23:34:59.555Z,90.10
2019-06-26T23:40:06.190Z,90.40
2019-06-26T23:45:11.530Z,90.50
2019-06-26T23:50:16.456Z,90.60
2019-06-26T23:55:21.619Z,90.70
